createdAt,value
2023-04-21T00:01:26.384Z,100.00
2023-04-21T00:03:53.267Z,100.00
2023-04-21T00:06:23.058Z,100.00
2023-04-21T00:08:50.950Z,100.00
2023-04-21T00:11:18.404Z,100.00
2023-04-21T00:13:45.313Z,100.00
2023-04-21T00:16:12.149Z,100.00
2023-04-21T00:18:38.955Z,100.00
2023-04-21T00:21:05.698Z,100.00
2023-04-21T00:23:32.353Z,100.00
2023-04-21T00:25:59.565Z,100.00
2023-04-21T00:28:26.260Z,100.00
2023-04-21T00:30:54.501Z,100.00
2023-04-21T00:33:21.228Z,100.00
2023-04-21T00:35:47.785Z,100.00
2023-04-21T00:38:14.368Z,100.00
2023-04-21T00:40:41.064Z,100.00
2023-04-21T00:43:07.808Z,100.00
2023-04-21T00:45:34.497Z,100.00
2023-04-21T00:48:01.202Z,100.00
2023-04-21T00:50:28.571Z,100.00
2023-04-21T00:52:56.387Z,100.00
2023-04-21T00:55:23.294Z,100.00
2023-04-21T00:57:52.299Z,100.00
2023-04-21T01:00:19.173Z,100.00
2023-04-21T01:02:46.551Z,100.00
2023-04-21T01:05:13.622Z,100.00
2023-04-21T01:07:40.416Z,100.00
2023-04-21T01:10:07.900Z,100.00
2023-04-21T01:12:42.509Z,100.00
2023-04-21T01:15:09.618Z,100.00
2023-04-21T01:17:38.698Z,100.00
2023-04-21T01:20:09.032Z,100.00
2023-04-21T01:22:41.860Z,100.00
2023-04-21T01:25:09.852Z,100.00
2023-04-21T01:27:36.942Z,100.00
2023-04-21T01:30:05.605Z,100.00
2023-04-21T01:32:32.781Z,100.00
2023-04-21T01:34:59.920Z,100.00
2023-04-21T01:37:30.775Z,100.00
2023-04-21T01:40:00.088Z,100.00
2023-04-21T01:42:29.577Z,100.00
2023-04-21T01:44:56.885Z,100.00
2023-04-21T01:47:25.391Z,100.00
2023-04-21T01:49:52.857Z,100.00
2023-04-21T01:52:20.011Z,100.00
2023-04-21T01:54:46.692Z,100.00
2023-04-21T01:57:13.374Z,100.00
2023-04-21T01:59:40.099Z,100.00
2023-04-21T02:02:07.003Z,100.00
2023-04-21T02:04:34.346Z,100.00
2023-04-21T02:07:01.241Z,100.00
2023-04-21T02:09:28.246Z,100.00
2023-04-21T02:11:57.840Z,100.00
2023-04-21T02:14:25.803Z,100.00
2023-04-21T02:16:52.765Z,100.00
2023-04-21T02:19:19.812Z,100.00
2023-04-21T02:21:46.571Z,100.00
2023-04-21T02:24:13.175Z,100.00
2023-04-21T02:26:39.763Z,100.00
2023-04-21T02:29:06.512Z,100.00
2023-04-21T02:31:34.921Z,100.00
2023-04-21T02:34:07.768Z,100.00
2023-04-21T02:36:34.439Z,100.00
2023-04-21T02:39:01.209Z,100.00
2023-04-21T02:41:27.791Z,100.00
2023-04-21T02:43:54.348Z,100.00
2023-04-21T02:46:20.991Z,100.00
2023-04-21T02:48:47.619Z,100.00
2023-04-21T02:51:15.708Z,100.00
2023-04-21T02:53:42.765Z,100.00
2023-04-21T02:56:09.943Z,100.00
2023-04-21T02:58:37.428Z,100.00
2023-04-21T03:01:05.626Z,100.00
2023-04-21T03:03:33.284Z,100.00
2023-04-21T03:06:05.381Z,100.00
2023-04-21T03:08:32.648Z,100.00
2023-04-21T03:10:59.582Z,100.00
2023-04-21T03:13:26.328Z,100.00
2023-04-21T03:15:53.429Z,100.00
2023-04-21T03:18:20.093Z,100.00
2023-04-21T03:20:46.663Z,100.00
2023-04-21T03:23:13.705Z,100.00
2023-04-21T03:25:40.456Z,100.00
2023-04-21T03:28:07.300Z,100.00
2023-04-21T03:30:33.904Z,100.00
2023-04-21T03:33:00.729Z,100.00
2023-04-21T03:35:27.720Z,100.00
2023-04-21T03:37:54.784Z,100.00
2023-04-21T03:40:21.487Z,100.00
2023-04-21T03:42:48.008Z,100.00
2023-04-21T03:45:14.712Z,100.00
2023-04-21T03:47:41.495Z,100.00
2023-04-21T03:50:08.726Z,100.00
2023-04-21T03:52:35.433Z,100.00
2023-04-21T03:55:02.407Z,100.00
2023-04-21T03:57:29.233Z,100.00
2023-04-21T03:59:55.935Z,100.00
2023-04-21T04:02:22.809Z,100.00
2023-04-21T04:04:49.698Z,100.00
2023-04-21T04:07:17.736Z,100.00
2023-04-21T04:09:44.919Z,100.00
2023-04-21T04:12:12.019Z,100.00
2023-04-21T04:14:39.681Z,100.00
2023-04-21T04:17:06.534Z,100.00
2023-04-21T04:19:33.474Z,100.00
2023-04-21T04:22:01.619Z,100.00
2023-04-21T04:24:28.609Z,100.00
2023-04-21T04:26:55.480Z,100.00
2023-04-21T04:29:22.774Z,100.00
2023-04-21T04:31:52.754Z,100.00
2023-04-21T04:34:19.690Z,100.00
2023-04-21T04:36:48.175Z,100.00
2023-04-21T04:39:16.801Z,100.00
2023-04-21T04:41:43.516Z,100.00
2023-04-21T04:44:11.379Z,100.00
2023-04-21T04:46:39.374Z,100.00
2023-04-21T04:49:06.048Z,100.00
2023-04-21T04:51:32.845Z,100.00
2023-04-21T04:53:59.535Z,100.00
2023-04-21T04:56:26.284Z,100.00
2023-04-21T04:58:52.969Z,100.00
2023-04-21T05:01:19.673Z,100.00
2023-04-21T05:03:46.694Z,100.00
2023-04-21T05:06:14.553Z,100.00
2023-04-21T05:08:44.231Z,100.00
2023-04-21T05:11:11.100Z,100.00
2023-04-21T05:13:39.778Z,100.00
2023-04-21T05:16:07.630Z,100.00
2023-04-21T05:18:34.214Z,100.00
2023-04-21T05:21:01.061Z,100.00
2023-04-21T05:23:27.949Z,100.00
2023-04-21T05:25:54.639Z,100.00
2023-04-21T05:28:21.338Z,100.00
2023-04-21T05:30:48.151Z,100.00
2023-04-21T05:33:14.908Z,100.00
2023-04-21T05:35:41.602Z,100.00
2023-04-21T05:38:08.384Z,100.00
2023-04-21T05:40:34.996Z,100.00
2023-04-21T05:43:01.819Z,100.00
2023-04-21T05:45:28.463Z,100.00
2023-04-21T05:47:55.160Z,100.00
2023-04-21T05:50:21.929Z,100.00
2023-04-21T05:52:48.791Z,100.00
2023-04-21T05:55:15.480Z,100.00
2023-04-21T05:57:42.266Z,100.00
2023-04-21T06:00:09.739Z,100.00
2023-04-21T06:02:36.615Z,100.00
2023-04-21T06:05:03.907Z,100.00
2023-04-21T06:07:30.865Z,100.00
2023-04-21T06:09:58.138Z,100.00
2023-04-21T06:12:24.830Z,100.00
2023-04-21T06:14:51.635Z,100.00
2023-04-21T06:17:18.659Z,100.00
2023-04-21T06:19:45.520Z,100.00
2023-04-21T06:22:12.115Z,100.00
2023-04-21T06:24:38.824Z,100.00
2023-04-21T06:27:11.075Z,100.00
2023-04-21T06:29:37.883Z,100.00
2023-04-21T06:32:04.643Z,100.00
2023-04-21T06:34:31.548Z,100.00
2023-04-21T06:36:58.320Z,100.00
2023-04-21T06:39:24.996Z,100.00
2023-04-21T06:41:51.727Z,100.00
2023-04-21T06:44:19.209Z,100.00
2023-04-21T06:46:46.488Z,98.76
2023-04-21T06:49:13.143Z,98.11
2023-04-21T06:51:39.817Z,96.13
2023-04-21T06:54:06.494Z,96.03
2023-04-21T06:56:33.697Z,94.66
2023-04-21T06:59:00.385Z,92.49
2023-04-21T07:01:27.249Z,91.80
2023-04-21T07:03:54.136Z,93.45
2023-04-21T07:06:20.891Z,93.08
2023-04-21T07:08:47.522Z,90.26
2023-04-21T07:11:14.112Z,89.63
2023-04-21T07:13:40.884Z,87.80
2023-04-21T07:16:07.538Z,86.33
2023-04-21T07:18:34.847Z,84.93
2023-04-21T07:21:01.700Z,82.55
2023-04-21T07:23:28.593Z,81.80
2023-04-21T07:25:55.310Z,81.42
2023-04-21T07:28:22.162Z,80.61
2023-04-21T07:30:48.996Z,81.25
2023-04-21T07:33:15.912Z,82.10
2023-04-21T07:35:42.702Z,82.70
2023-04-21T07:38:09.892Z,83.56
2023-04-21T07:40:36.461Z,82.89
2023-04-21T07:43:03.471Z,83.65
2023-04-21T07:45:30.357Z,83.92
2023-04-21T07:47:57.180Z,85.59
2023-04-21T07:50:23.828Z,84.53
2023-04-21T07:52:50.641Z,86.28
2023-04-21T07:55:17.498Z,85.39
2023-04-21T07:57:44.249Z,84.71
2023-04-21T08:00:11.899Z,85.08
2023-04-21T08:02:38.621Z,83.42
2023-04-21T08:05:05.652Z,82.40
2023-04-21T08:07:32.358Z,80.42
2023-04-21T08:10:00.514Z,79.52
2023-04-21T08:12:27.508Z,80.08
2023-04-21T08:14:58.171Z,78.14
2023-04-21T08:17:25.403Z,77.17
2023-04-21T08:19:52.390Z,76.98
2023-04-21T08:22:19.010Z,75.70
2023-04-21T08:24:45.778Z,75.91
2023-04-21T08:27:12.626Z,74.37
2023-04-21T08:29:39.505Z,74.04
2023-04-21T08:32:06.389Z,73.29
2023-04-21T08:34:33.149Z,73.13
2023-04-21T08:36:59.890Z,71.93
2023-04-21T08:39:27.121Z,72.62
2023-04-21T08:41:54.200Z,73.32
2023-04-21T08:44:21.900Z,72.80
2023-04-21T08:46:52.129Z,71.77
2023-04-21T08:49:21.116Z,71.46
2023-04-21T08:51:48.189Z,69.71
2023-04-21T08:54:14.960Z,69.56
2023-04-21T08:56:41.821Z,67.89
2023-04-21T08:59:08.681Z,68.34
2023-04-21T09:02:16.462Z,69.39
2023-04-21T09:04:46.386Z,67.34
2023-04-21T09:07:32.494Z,67.53
2023-04-21T09:10:00.731Z,66.89
2023-04-21T09:12:28.390Z,64.52
2023-04-21T09:14:55.500Z,64.36
2023-04-21T09:17:27.913Z,64.15
2023-04-21T09:19:54.797Z,66.58
2023-04-21T09:22:27.073Z,67.59
2023-04-21T09:25:02.743Z,67.36
2023-04-21T09:27:29.648Z,66.60
2023-04-21T09:30:03.891Z,66.61
2023-04-21T09:32:30.929Z,66.54
2023-04-21T09:35:01.218Z,66.46
2023-04-21T09:37:34.008Z,65.17
2023-04-21T09:42:31.348Z,66.97
2023-04-21T09:45:16.417Z,66.57
2023-04-21T09:47:50.976Z,66.91
2023-04-21T09:50:35.776Z,65.58
2023-04-21T09:53:09.960Z,66.17
2023-04-21T09:55:37.190Z,65.83
2023-04-21T09:58:07.412Z,65.11
2023-04-21T10:00:39.738Z,66.21
2023-04-21T10:03:11.615Z,64.49
2023-04-21T10:05:42.058Z,63.27
2023-04-21T10:08:11.988Z,63.91
2023-04-21T10:10:40.104Z,65.23
2023-04-21T10:13:07.716Z,64.88
2023-04-21T10:15:38.812Z,64.74
2023-04-21T10:18:23.946Z,65.18
2023-04-21T10:20:56.854Z,62.92
2023-04-21T10:23:42.789Z,61.86
2023-04-21T10:26:11.053Z,61.90
2023-04-21T10:28:48.693Z,62.15
2023-04-21T10:31:23.844Z,60.47
2023-04-21T10:34:18.052Z,59.06
2023-04-21T10:36:57.707Z,59.52
2023-04-21T10:39:28.264Z,59.06
2023-04-21T10:41:59.250Z,58.68
2023-04-21T10:44:29.324Z,59.81
2023-04-21T10:46:59.088Z,59.56
2023-04-21T10:49:28.143Z,59.86
2023-04-21T10:51:57.997Z,61.01
2023-04-21T10:54:31.779Z,62.32
2023-04-21T10:56:59.512Z,61.29
2023-04-21T10:59:29.301Z,62.00
2023-04-21T11:01:56.174Z,63.21
2023-04-21T11:04:24.235Z,60.72
2023-04-21T11:07:15.196Z,59.75
2023-04-21T11:09:42.823Z,61.41
2023-04-21T11:12:18.406Z,60.62
2023-04-21T11:14:48.393Z,61.18
2023-04-21T11:17:17.230Z,62.85
2023-04-21T11:19:50.822Z,62.22
2023-04-21T11:22:20.024Z,63.24
2023-04-21T11:24:48.417Z,62.52
2023-04-21T11:27:15.759Z,62.79
2023-04-21T11:29:42.839Z,62.57
2023-04-21T11:32:10.268Z,59.85
2023-04-21T11:34:38.669Z,59.04
2023-04-21T11:37:08.629Z,57.52
2023-04-21T11:39:35.925Z,57.36
2023-04-21T11:42:03.239Z,57.71
2023-04-21T11:44:33.875Z,58.03
2023-04-21T11:47:01.177Z,58.17
2023-04-21T11:49:29.730Z,59.59
2023-04-21T11:51:56.879Z,59.54
2023-04-21T11:54:24.772Z,59.48
2023-04-21T11:56:54.970Z,59.37
2023-04-21T11:59:26.491Z,58.26
2023-04-21T12:01:54.749Z,55.53
2023-04-21T12:04:23.543Z,55.08
2023-04-21T12:07:05.318Z,55.57
2023-04-21T12:09:32.222Z,55.32
2023-04-21T12:12:02.016Z,55.67
2023-04-21T12:14:28.839Z,55.98
2023-04-21T12:16:57.887Z,55.47
2023-04-21T12:19:34.874Z,57.51
2023-04-21T12:22:02.043Z,56.09
2023-04-21T12:24:28.731Z,54.52
2023-04-21T12:26:56.251Z,55.87
2023-04-21T12:29:23.390Z,56.32
2023-04-21T12:31:50.119Z,55.75
2023-04-21T12:34:16.994Z,55.48
2023-04-21T12:36:43.885Z,56.20
2023-04-21T12:39:14.156Z,56.86
2023-04-21T12:41:41.066Z,55.48
2023-04-21T12:44:07.699Z,55.79
2023-04-21T12:46:34.603Z,56.20
2023-04-21T12:49:02.284Z,55.21
2023-04-21T12:51:29.183Z,54.79
2023-04-21T12:53:55.959Z,55.43
2023-04-21T12:56:22.813Z,53.74
2023-04-21T12:58:49.689Z,53.34
2023-04-21T13:01:17.378Z,52.16
2023-04-21T13:03:44.340Z,53.43
2023-04-21T13:06:12.036Z,53.09
2023-04-21T13:08:38.866Z,53.48
2023-04-21T13:11:05.899Z,54.90
2023-04-21T13:13:32.703Z,54.35
2023-04-21T13:15:59.484Z,53.47
2023-04-21T13:18:26.624Z,54.47
2023-04-21T13:20:53.609Z,53.18
2023-04-21T13:23:20.954Z,53.51
2023-04-21T13:25:48.465Z,52.42
2023-04-21T13:28:15.364Z,53.67
2023-04-21T13:30:45.702Z,53.14
2023-04-21T13:33:15.319Z,54.78
2023-04-21T13:35:42.778Z,54.33
2023-04-21T13:38:09.708Z,53.44
2023-04-21T13:40:37.260Z,53.81
2023-04-21T13:43:04.171Z,55.15
2023-04-21T13:45:31.599Z,54.67
2023-04-21T13:48:01.376Z,54.00
2023-04-21T13:50:28.473Z,54.53
2023-04-21T13:52:55.353Z,54.88
2023-04-21T13:55:22.209Z,54.67
2023-04-21T13:57:49.336Z,54.68
2023-04-21T14:00:16.785Z,55.11
2023-04-21T14:02:44.087Z,54.37
2023-04-21T14:05:11.296Z,54.08
2023-04-21T14:07:38.472Z,53.42
2023-04-21T14:10:08.799Z,53.75
2023-04-21T14:12:35.897Z,52.95
2023-04-21T14:15:05.426Z,54.12
2023-04-21T14:17:33.226Z,54.63
2023-04-21T14:20:00.969Z,55.28
2023-04-21T14:22:28.577Z,54.10
2023-04-21T14:24:55.261Z,53.45
2023-04-21T14:27:22.178Z,53.75
2023-04-21T14:29:49.296Z,53.56
2023-04-21T14:32:17.430Z,54.11
2023-04-21T14:34:44.572Z,53.80
2023-04-21T14:37:12.739Z,53.61
2023-04-21T14:39:39.489Z,54.29
2023-04-21T14:42:06.411Z,53.61
2023-04-21T14:44:34.064Z,53.82
2023-04-21T14:47:09.071Z,54.80
2023-04-21T14:49:40.324Z,54.53
2023-04-21T14:52:07.425Z,53.02
2023-04-21T14:54:34.364Z,53.06
2023-04-21T14:57:17.753Z,53.67
2023-04-21T14:59:47.463Z,55.49
2023-04-21T15:02:14.812Z,55.28
2023-04-21T15:04:41.952Z,53.71
2023-04-21T15:07:08.906Z,52.99
2023-04-21T15:09:39.385Z,54.00
2023-04-21T15:12:10.230Z,54.80
2023-04-21T15:14:37.290Z,55.62
2023-04-21T15:17:04.374Z,55.72
2023-04-21T15:19:32.008Z,54.63
2023-04-21T15:21:58.937Z,54.66
2023-04-21T15:24:30.906Z,54.58
2023-04-21T15:27:08.091Z,53.71
2023-04-21T15:29:35.105Z,53.81
2023-04-21T15:32:02.958Z,55.36
2023-04-21T15:34:29.817Z,54.49
2023-04-21T15:36:56.913Z,54.69
2023-04-21T15:39:23.917Z,55.16
2023-04-21T15:41:51.141Z,55.54
2023-04-21T15:44:17.953Z,54.71
2023-04-21T15:46:44.720Z,56.12
2023-04-21T15:49:11.781Z,55.79
2023-04-21T15:51:38.730Z,56.21
2023-04-21T15:54:05.702Z,55.93
2023-04-21T15:56:32.589Z,55.65
2023-04-21T15:58:59.612Z,56.07
2023-04-21T16:01:26.488Z,56.44
2023-04-21T16:03:53.628Z,56.81
2023-04-21T16:06:21.771Z,56.67
2023-04-21T16:08:48.819Z,56.38
2023-04-21T16:11:15.700Z,56.31
2023-04-21T16:13:42.720Z,56.79
2023-04-21T16:16:12.369Z,57.55
2023-04-21T16:18:42.447Z,57.53
2023-04-21T16:21:09.623Z,57.24
2023-04-21T16:23:37.258Z,57.80
2023-04-21T16:26:06.195Z,57.75
2023-04-21T16:28:33.030Z,58.60
2023-04-21T16:30:59.880Z,57.42
2023-04-21T16:33:26.785Z,58.38
2023-04-21T16:35:55.343Z,57.18
2023-04-21T16:38:24.043Z,58.45
2023-04-21T16:40:51.008Z,59.03
2023-04-21T16:43:17.823Z,59.00
2023-04-21T16:45:44.707Z,58.33
2023-04-21T16:48:11.519Z,58.31
2023-04-21T16:50:38.532Z,58.43
2023-04-21T16:53:05.369Z,58.85
2023-04-21T16:55:32.043Z,59.12
2023-04-21T16:57:59.962Z,59.56
2023-04-21T17:00:27.126Z,60.12
2023-04-21T17:02:54.265Z,59.75
2023-04-21T17:05:21.205Z,59.78
2023-04-21T17:07:48.541Z,60.81
2023-04-21T17:10:15.489Z,61.08
2023-04-21T17:12:42.777Z,60.98
2023-04-21T17:15:10.417Z,61.31
2023-04-21T17:17:43.221Z,61.52
2023-04-21T17:20:12.136Z,61.51
2023-04-21T17:22:40.002Z,61.41
2023-04-21T17:25:07.984Z,62.26
2023-04-21T17:27:36.774Z,60.62
2023-04-21T17:30:05.136Z,61.65
2023-04-21T17:32:33.995Z,62.31
2023-04-21T17:35:01.230Z,61.67
2023-04-21T17:37:30.472Z,61.90
2023-04-21T17:39:59.271Z,61.58
2023-04-21T17:42:28.218Z,61.65
2023-04-21T17:44:54.919Z,62.21
2023-04-21T17:47:27.719Z,62.17
2023-04-21T17:49:56.607Z,62.29
2023-04-21T17:52:23.403Z,62.57
2023-04-21T17:54:50.221Z,63.42
2023-04-21T17:57:17.150Z,63.76
2023-04-21T17:59:43.904Z,64.12
2023-04-21T18:02:13.900Z,63.64
2023-04-21T18:04:41.000Z,64.69
2023-04-21T18:07:08.221Z,64.28
2023-04-21T18:09:35.060Z,63.99
2023-04-21T18:12:01.953Z,64.63
2023-04-21T18:14:29.069Z,64.83
2023-04-21T18:16:55.886Z,65.08
2023-04-21T18:19:22.634Z,65.18
2023-04-21T18:21:49.293Z,65.99
2023-04-21T18:24:16.366Z,65.91
2023-04-21T18:26:43.570Z,65.72
2023-04-21T18:29:10.484Z,65.80
2023-04-21T18:31:37.370Z,66.75
2023-04-21T18:34:04.077Z,66.40
2023-04-21T18:36:33.514Z,67.35
2023-04-21T18:39:01.362Z,67.28
2023-04-21T18:41:28.234Z,67.02
2023-04-21T18:43:55.034Z,67.32
2023-04-21T18:46:22.243Z,67.55
2023-04-21T18:48:49.184Z,67.87
2023-04-21T18:51:15.899Z,67.85
2023-04-21T18:53:43.511Z,67.87
2023-04-21T18:56:10.141Z,68.58
2023-04-21T18:58:36.776Z,68.04
2023-04-21T19:01:03.745Z,67.28
2023-04-21T19:03:30.734Z,66.65
2023-04-21T19:05:57.477Z,66.95
2023-04-21T19:08:34.298Z,66.93
2023-04-21T19:11:08.136Z,67.29
2023-04-21T19:13:35.183Z,66.68
2023-04-21T19:16:01.926Z,66.75
2023-04-21T19:18:28.756Z,67.20
2023-04-21T19:20:55.409Z,67.00
2023-04-21T19:23:22.153Z,67.01
2023-04-21T19:25:54.854Z,67.85
2023-04-21T19:28:21.888Z,67.73
2023-04-21T19:30:49.005Z,68.62
2023-04-21T19:33:16.123Z,69.10
2023-04-21T19:35:43.218Z,69.64
2023-04-21T19:38:10.279Z,70.16
2023-04-21T19:40:37.217Z,70.57
2023-04-21T19:43:04.724Z,70.86
2023-04-21T19:45:31.555Z,71.28
2023-04-21T19:47:58.345Z,70.87
2023-04-21T19:50:25.301Z,70.51
2023-04-21T19:52:51.889Z,70.95
2023-04-21T19:55:18.790Z,70.94
2023-04-21T19:57:45.625Z,71.28
2023-04-21T20:00:13.152Z,71.15
2023-04-21T20:02:40.331Z,71.85
2023-04-21T20:05:08.742Z,71.65
2023-04-21T20:07:35.641Z,71.91
2023-04-21T20:10:02.817Z,72.63
2023-04-21T20:12:29.564Z,72.48
2023-04-21T20:14:56.728Z,73.25
2023-04-21T20:17:23.386Z,73.91
2023-04-21T20:19:50.154Z,74.05
2023-04-21T20:22:16.850Z,74.56
2023-04-21T20:24:43.563Z,73.80
2023-04-21T20:27:10.429Z,74.65
2023-04-21T20:29:37.684Z,74.15
2023-04-21T20:32:04.814Z,74.46
2023-04-21T20:34:31.560Z,74.31
2023-04-21T20:36:58.485Z,74.58
2023-04-21T20:39:25.544Z,73.92
2023-04-21T20:42:04.672Z,73.75
2023-04-21T20:44:39.009Z,73.67
2023-04-21T20:47:06.187Z,73.89
2023-04-21T20:49:33.019Z,73.45
2023-04-21T20:52:01.381Z,73.00
2023-04-21T20:54:28.969Z,73.30
2023-04-21T20:56:55.889Z,73.97
2023-04-21T20:59:22.810Z,74.28
2023-04-21T21:01:49.525Z,74.25
2023-04-21T21:04:16.358Z,73.52
2023-04-21T21:06:43.158Z,73.44
2023-04-21T21:09:10.384Z,73.48
2023-04-21T21:11:37.086Z,73.06
2023-04-21T21:14:03.937Z,73.28
2023-04-21T21:16:30.705Z,73.62
2023-04-21T21:18:57.490Z,74.12
2023-04-21T21:21:24.239Z,74.96
2023-04-21T21:23:51.459Z,74.83
2023-04-21T21:26:18.441Z,75.27
2023-04-21T21:28:45.126Z,74.67
2023-04-21T21:31:11.812Z,74.79
2023-04-21T21:33:41.045Z,74.79
2023-04-21T21:36:08.002Z,74.96
2023-04-21T21:38:34.773Z,73.95
2023-04-21T21:41:02.169Z,73.66
2023-04-21T21:43:28.807Z,74.10
2023-04-21T21:45:58.221Z,74.18
2023-04-21T21:48:27.764Z,73.87
2023-04-21T21:50:54.751Z,74.79
2023-04-21T21:53:21.482Z,75.47
2023-04-21T21:55:48.417Z,75.42
2023-04-21T21:58:16.632Z,75.98
2023-04-21T22:00:43.285Z,75.45
2023-04-21T22:03:10.183Z,76.01
2023-04-21T22:05:36.914Z,75.10
2023-04-21T22:08:04.323Z,75.81
2023-04-21T22:10:30.995Z,75.37
2023-04-21T22:12:57.955Z,75.36
2023-04-21T22:15:24.691Z,75.19
2023-04-21T22:17:51.665Z,74.35
2023-04-21T22:20:19.390Z,74.62
2023-04-21T22:22:46.083Z,74.07
2023-04-21T22:25:12.829Z,73.51
2023-04-21T22:27:40.052Z,73.41
2023-04-21T22:30:07.656Z,73.38
2023-04-21T22:32:34.455Z,73.57
2023-04-21T22:35:01.473Z,73.58
2023-04-21T22:37:28.375Z,73.93
2023-04-21T22:39:57.070Z,73.60
2023-04-21T22:42:24.146Z,73.67
2023-04-21T22:44:51.038Z,74.28
2023-04-21T22:47:17.733Z,74.42
2023-04-21T22:49:44.447Z,74.53
2023-04-21T22:52:11.218Z,74.71
2023-04-21T22:54:37.860Z,74.11
2023-04-21T22:57:06.097Z,74.50
2023-04-21T22:59:32.973Z,74.46
2023-04-21T23:01:59.721Z,74.23
2023-04-21T23:04:26.614Z,74.07
2023-04-21T23:06:53.178Z,75.13
2023-04-21T23:09:19.839Z,74.18
2023-04-21T23:11:46.488Z,74.84
2023-04-21T23:14:13.236Z,75.00
2023-04-21T23:16:39.906Z,74.15
2023-04-21T23:19:06.502Z,74.77
2023-04-21T23:21:33.296Z,74.89
2023-04-21T23:23:59.943Z,75.20
2023-04-21T23:26:26.772Z,74.95
2023-04-21T23:28:53.455Z,74.26
2023-04-21T23:31:20.147Z,74.52
2023-04-21T23:33:46.870Z,74.33
2023-04-21T23:36:13.539Z,74.70
2023-04-21T23:38:40.212Z,74.49
2023-04-21T23:41:06.961Z,74.98
2023-04-21T23:43:34.743Z,74.95
2023-04-21T23:46:01.530Z,74.38
2023-04-21T23:48:28.315Z,74.64
2023-04-21T23:50:55.296Z,75.05
2023-04-21T23:53:22.141Z,75.04
2023-04-21T23:55:48.887Z,75.56
2023-04-21T23:58:15.483Z,75.46
